createdAt,value
2022-09-05T08:16:10.227Z,8.25
2022-09-05T08:18:42.586Z,6.85
2022-09-05T08:21:28.753Z,8.50
2022-09-05T08:24:24.006Z,7.62
2022-09-05T08:27:16.077Z,10.48
2022-09-05T08:29:52.594Z,6.62
2022-09-05T08:32:47.989Z,5.97
2022-09-05T08:35:35.094Z,8.23
2022-09-05T08:38:09.923Z,4.08
2022-09-05T08:41:43.191Z,4.08
2022-09-05T08:46:41.810Z,12.63
2022-09-05T08:47:07.265Z,7.20
2022-09-05T08:50:00.371Z,6.92
2022-09-05T08:52:53.934Z,4.62
2022-09-05T08:55:31.477Z,4.35
2022-09-05T08:58:48.270Z,3.10
2022-09-05T09:02:15.664Z,4.65
2022-09-05T09:05:01.374Z,5.43
2022-09-05T09:07:47.688Z,5.42
2022-09-05T09:10:46.589Z,4.08
2022-09-05T09:13:59.520Z,4.62
2022-09-05T09:17:14.181Z,3.20
2022-09-05T09:19:52.400Z,4.85
2022-09-05T09:22:44.718Z,5.45
2022-09-05T09:25:40.383Z,3.25
2022-09-05T09:28:55.840Z,5.37
2022-09-05T09:31:51.696Z,3.62
2022-09-05T09:34:36.894Z,4.53
2022-09-05T09:37:51.660Z,2.45
2022-09-05T09:41:02.685Z,3.02
2022-09-05T09:46:21.656Z,4.20
2022-09-05T09:52:05.091Z,2.55
2022-09-05T09:54:52.716Z,2.92
2022-09-05T09:58:07.570Z,5.70
2022-09-05T10:01:20.261Z,2.50
2022-09-05T10:10:00.929Z,3.08
2022-09-05T10:10:44.274Z,2.37
2022-09-05T10:11:00.443Z,2.65
2022-09-05T10:13:13.571Z,4.58
2022-09-05T10:16:24.289Z,2.45
2022-09-05T10:22:37.750Z,2.77
2022-09-05T10:25:42.582Z,3.00
2022-09-05T10:28:29.296Z,3.37
2022-09-05T10:32:32.604Z,3.47
2022-09-05T10:35:07.920Z,3.80
2022-09-05T10:37:05.429Z,5.20
2022-09-05T10:39:51.910Z,3.58
2022-09-05T10:42:35.766Z,5.92
2022-09-05T10:45:17.984Z,3.50
2022-09-05T10:48:26.046Z,4.42
2022-09-05T10:51:37.766Z,4.92
2022-09-05T10:54:25.558Z,6.10
2022-09-05T10:57:37.374Z,8.58
2022-09-05T11:02:20.101Z,5.03
2022-09-05T11:03:36.176Z,15.68
2022-09-05T11:06:13.246Z,4.65
2022-09-05T11:09:16.482Z,5.95
2022-09-05T11:11:53.345Z,6.03
2022-09-05T11:14:53.485Z,2.10
2022-09-05T11:17:42.228Z,2.77
2022-09-05T11:20:47.501Z,4.20
2022-09-05T11:23:48.753Z,2.95
2022-09-05T11:26:36.329Z,2.67
2022-09-05T11:29:19.557Z,3.02
2022-09-05T11:36:41.553Z,2.87
2022-09-05T11:39:54.948Z,2.33
2022-09-05T11:40:09.704Z,1.77
2022-09-05T11:41:33.125Z,2.98
2022-09-05T11:44:25.789Z,1.98
2022-09-05T11:47:28.019Z,3.95
2022-09-05T11:50:18.471Z,1.98
2022-09-05T11:53:16.913Z,3.45
2022-09-05T11:56:12.779Z,2.62
2022-09-05T12:02:37.627Z,2.35
2022-09-05T12:05:48.752Z,4.83
2022-09-05T12:08:23.644Z,6.47
2022-09-05T12:11:37.759Z,2.90
2022-09-05T12:14:55.178Z,2.60
2022-09-05T12:17:58.707Z,7.65
2022-09-05T12:20:52.284Z,3.05
2022-09-05T12:24:28.574Z,2.35
2022-09-05T12:29:29.556Z,3.40
2022-09-05T12:32:59.474Z,4.22
2022-09-05T12:36:11.620Z,2.25
2022-09-05T12:40:53.900Z,3.02
2022-09-05T12:41:35.259Z,1.50
2022-09-05T12:41:36.989Z,2.77
2022-09-05T12:41:41.713Z,3.10
2022-09-05T12:44:39.908Z,4.17
2022-09-05T12:46:00.040Z,3.27
2022-09-05T12:48:47.226Z,1.95
2022-09-05T12:51:46.139Z,4.80
2022-09-05T12:54:27.874Z,2.52
2022-09-05T12:59:56.672Z,2.85
2022-09-05T13:03:06.072Z,2.83
2022-09-05T13:03:09.051Z,2.65
2022-09-05T13:05:01.185Z,1.82
2022-09-05T13:07:50.241Z,2.55
2022-09-05T13:14:18.859Z,3.33
2022-09-05T13:14:57.076Z,2.25
2022-09-05T13:15:51.243Z,3.12
2022-09-05T13:18:33.723Z,4.58
2022-09-05T13:21:22.979Z,4.92
2022-09-05T13:24:11.218Z,1.85
2022-09-05T13:27:00.601Z,1.90
2022-09-05T13:30:09.890Z,3.87
2022-09-05T13:37:56.117Z,2.42
2022-09-05T13:38:04.875Z,3.40
2022-09-05T13:38:05.481Z,2.47
2022-09-05T13:40:24.112Z,2.70
2022-09-05T13:43:13.671Z,9.45
2022-09-05T13:46:11.907Z,1.92
2022-09-05T13:51:50.411Z,5.08
2022-09-05T13:54:28.131Z,5.92
2022-09-05T13:57:37.559Z,3.42
2022-09-05T14:00:28.088Z,2.98
2022-09-05T14:03:39.101Z,2.65
2022-09-05T14:10:16.173Z,4.28
2022-09-05T14:13:08.621Z,2.42
2022-09-05T14:16:00.565Z,3.92
2022-09-05T14:19:04.718Z,2.45
2022-09-05T14:21:41.004Z,1.67
2022-09-05T14:24:28.013Z,4.80
2022-09-05T14:27:06.925Z,5.05
2022-09-05T14:29:47.742Z,2.25
2022-09-05T14:37:39.114Z,1.90
2022-09-05T14:37:43.662Z,2.83
2022-09-05T14:38:16.047Z,1.47
2022-09-05T14:41:18.490Z,3.72
2022-09-05T14:44:20.451Z,6.90
2022-09-05T14:47:34.934Z,2.70
2022-09-05T14:50:39.257Z,4.75
2022-09-05T14:56:36.764Z,2.50
2022-09-05T15:02:47.775Z,3.10
2022-09-05T15:02:50.052Z,2.60
2022-09-05T15:06:28.100Z,6.35
2022-09-05T15:12:14.752Z,10.63
2022-09-05T15:12:20.127Z,8.90
2022-09-05T15:14:19.739Z,3.80
2022-09-05T15:17:02.237Z,2.27
2022-09-05T15:20:05.315Z,3.70
2022-09-05T15:22:37.077Z,4.12
2022-09-05T15:25:21.783Z,3.20
2022-09-05T15:27:55.407Z,5.60
2022-09-05T15:30:36.815Z,5.08
2022-09-05T15:33:26.367Z,2.15
2022-09-05T15:36:01.338Z,2.50
2022-09-05T15:38:54.387Z,3.02
2022-09-05T15:41:23.491Z,9.40
2022-09-05T15:44:09.701Z,3.75
2022-09-05T15:46:51.542Z,4.80
2022-09-05T15:49:59.803Z,5.95
2022-09-05T15:52:55.036Z,4.72
2022-09-05T15:55:29.733Z,2.80
2022-09-05T15:58:05.706Z,3.50
2022-09-05T16:00:48.144Z,4.72
2022-09-05T16:07:32.851Z,6.70
2022-09-05T16:10:36.492Z,3.55
2022-09-05T16:10:38.383Z,6.78
2022-09-05T16:14:29.302Z,7.42
2022-09-05T16:23:28.091Z,6.97
2022-09-05T16:23:28.886Z,9.15
2022-09-05T16:23:40.827Z,11.35
2022-09-05T16:26:05.564Z,6.95
2022-09-05T16:28:47.986Z,7.25
2022-09-05T16:31:27.899Z,11.30
2022-09-05T16:34:06.671Z,9.93
2022-09-05T16:37:08.400Z,18.73
2022-09-05T16:39:33.118Z,10.18
2022-09-05T16:42:23.989Z,10.18
2022-09-05T16:45:16.662Z,10.93
2022-09-05T16:48:07.038Z,12.80
2022-09-05T16:50:58.162Z,14.28
2022-09-05T16:53:53.338Z,25.70
2022-09-05T16:56:24.421Z,24.63
2022-09-05T16:59:09.884Z,16.52
2022-09-05T17:02:11.175Z,9.58
2022-09-05T17:05:13.103Z,12.45
2022-09-05T17:08:02.765Z,10.78
2022-09-05T17:10:57.990Z,11.33
2022-09-05T17:13:57.761Z,11.63
2022-09-05T17:16:54.931Z,8.63
2022-09-05T17:20:05.992Z,10.80
2022-09-05T17:24:24.390Z,10.60
2022-09-05T17:29:24.830Z,8.73
2022-09-05T17:29:27.400Z,12.82
2022-09-05T17:33:45.126Z,12.60
2022-09-05T17:36:41.291Z,13.88
2022-09-05T17:39:45.016Z,14.13
2022-09-05T17:42:36.691Z,10.38
2022-09-05T17:45:34.279Z,10.03
2022-09-05T17:48:07.540Z,10.15
2022-09-05T17:50:51.397Z,11.15
2022-09-05T17:53:27.577Z,8.37
2022-09-05T17:56:05.464Z,9.70
2022-09-05T17:58:50.292Z,8.40
2022-09-05T18:01:22.089Z,11.43
2022-09-05T18:04:16.945Z,9.28
2022-09-05T18:06:38.513Z,10.58
2022-09-05T18:09:31.204Z,8.95
2022-09-05T18:13:11.486Z,8.50
2022-09-05T18:15:29.018Z,9.53
2022-09-05T18:21:21.818Z,9.05
2022-09-05T18:23:46.618Z,9.68
2022-09-05T18:26:21.681Z,8.50
2022-09-05T18:29:14.400Z,8.88
2022-09-05T18:31:51.692Z,6.97
2022-09-05T18:34:31.837Z,7.22
2022-09-05T18:37:09.813Z,6.17
2022-09-05T18:39:43.672Z,8.03
2022-09-05T18:42:34.030Z,7.45
2022-09-05T18:45:00.446Z,6.72
2022-09-05T18:47:51.071Z,7.72
2022-09-05T18:50:27.960Z,9.08
2022-09-05T18:53:10.020Z,7.33
2022-09-05T18:56:13.225Z,8.58
2022-09-05T18:58:14.670Z,7.25
2022-09-05T19:00:49.657Z,6.80
2022-09-05T19:03:33.911Z,6.67
2022-09-05T19:06:36.498Z,6.67
2022-09-05T19:09:02.482Z,7.60
2022-09-05T19:12:10.861Z,8.80
2022-09-05T19:14:48.560Z,5.60
2022-09-05T19:17:37.867Z,7.53
2022-09-05T19:20:28.792Z,7.28
2022-09-05T19:23:11.237Z,6.30
2022-09-05T19:25:45.484Z,7.53
2022-09-05T19:36:54.261Z,7.90
2022-09-05T19:36:56.791Z,6.60
2022-09-05T19:36:58.356Z,6.10
2022-09-05T19:37:29.325Z,7.10
2022-09-05T19:44:41.347Z,6.97
2022-09-05T19:47:25.970Z,7.08
2022-09-05T19:47:57.627Z,7.03
2022-09-05T19:50:15.336Z,6.87
2022-09-05T19:52:56.040Z,7.62
2022-09-05T19:55:29.208Z,6.78
2022-09-05T19:58:19.207Z,9.15
2022-09-05T20:00:40.600Z,8.10
2022-09-05T20:03:13.694Z,7.03
2022-09-05T20:05:49.627Z,7.50
2022-09-05T20:08:36.333Z,6.65
2022-09-05T20:11:09.791Z,6.70
2022-09-05T20:13:43.437Z,6.70
2022-09-05T20:16:17.359Z,8.13
2022-09-05T20:18:50.424Z,8.43
2022-09-05T20:21:33.155Z,8.68
2022-09-05T20:24:06.633Z,6.08
2022-09-05T20:26:39.854Z,6.43
2022-09-05T20:29:15.520Z,6.72
2022-09-05T20:31:48.394Z,8.35
2022-09-05T20:35:38.053Z,6.85
2022-09-05T20:43:08.643Z,7.97
2022-09-05T20:43:27.819Z,8.25
2022-09-05T20:43:29.180Z,19.50
2022-09-05T20:45:08.846Z,8.58
2022-09-05T20:54:08.262Z,7.25
2022-09-05T20:54:15.416Z,6.80
2022-09-05T20:54:17.182Z,5.70
2022-09-05T20:55:42.864Z,5.22
2022-09-05T20:58:31.515Z,6.72
2022-09-05T21:01:21.210Z,6.45
2022-09-05T21:04:03.682Z,10.60
2022-09-05T21:06:40.876Z,7.08
2022-09-05T21:09:24.901Z,5.47
2022-09-05T21:11:59.178Z,6.95
2022-09-05T21:14:32.709Z,7.42
2022-09-05T21:17:15.243Z,8.83
2022-09-05T21:19:41.826Z,9.45
2022-09-05T21:22:24.547Z,7.90
2022-09-05T21:25:20.443Z,7.12
2022-09-05T21:28:10.051Z,7.17
2022-09-05T21:30:46.311Z,8.83
2022-09-05T21:33:23.708Z,7.75
2022-09-05T21:36:04.442Z,7.67
2022-09-05T21:38:43.930Z,8.00
2022-09-05T21:41:18.313Z,9.38
2022-09-05T21:47:42.445Z,9.20
2022-09-05T21:47:43.102Z,11.83
2022-09-05T21:49:03.488Z,27.40
2022-09-05T21:51:36.708Z,33.30
2022-09-05T21:59:14.322Z,52.45
2022-09-05T21:59:21.315Z,42.17
2022-09-05T21:59:41.503Z,61.08
2022-09-05T22:02:08.910Z,55.98
2022-09-05T22:04:42.157Z,107.40
2022-09-05T22:07:27.357Z,81.90
2022-09-05T22:09:53.540Z,83.67
2022-09-05T22:12:30.180Z,71.65
2022-09-05T22:15:11.708Z,62.80
2022-09-05T22:17:42.449Z,191.88
2022-09-05T22:20:20.168Z,324.80
2022-09-05T22:22:56.390Z,567.40
2022-09-05T22:25:31.326Z,494.67
2022-09-05T22:28:35.476Z,257.77
2022-09-05T22:31:08.963Z,127.62
2022-09-05T22:33:42.016Z,82.82
2022-09-05T22:36:15.113Z,49.53
2022-09-05T22:38:48.284Z,31.97
2022-09-05T22:41:29.923Z,21.57
2022-09-05T22:43:57.069Z,17.42
2022-09-05T22:46:31.095Z,12.60
2022-09-05T22:49:04.218Z,13.22
2022-09-05T22:51:37.210Z,14.18
2022-09-05T22:54:10.292Z,16.17
2022-09-05T22:56:43.587Z,18.25
2022-09-05T22:59:17.292Z,16.37
2022-09-05T23:01:51.522Z,18.70
2022-09-05T23:04:24.348Z,49.90
2022-09-05T23:06:58.002Z,40.45
2022-09-05T23:09:31.186Z,26.07
2022-09-05T23:12:07.555Z,20.65
2022-09-05T23:14:40.338Z,13.43
2022-09-05T23:17:15.300Z,23.62
2022-09-05T23:19:48.055Z,21.77
2022-09-05T23:22:21.244Z,18.12
2022-09-05T23:24:54.267Z,15.03
2022-09-05T23:27:27.129Z,17.65
2022-09-05T23:30:00.409Z,10.17
2022-09-05T23:32:34.097Z,11.03
2022-09-05T23:35:07.679Z,17.27
2022-09-05T23:37:44.281Z,17.55
2022-09-05T23:40:22.105Z,14.30
2022-09-05T23:42:57.668Z,13.13
2022-09-05T23:45:31.633Z,9.20
2022-09-05T23:48:05.723Z,11.55
2022-09-05T23:50:38.632Z,10.30
2022-09-05T23:53:11.708Z,15.80
2022-09-05T23:55:45.107Z,10.40
2022-09-05T23:58:18.326Z,11.08
